Time;durP1;ratioP1;P1;durP2;ratioP2;P2;SDS_P1;SDS_P2;PMS_P1;PMS_P2;Temp;Humidity;BMP_temperature;BMP_pressure;BME280_temperature;BME280_humidity;BME280_pressure;Samples;Min_cycle;Max_cycle;Signal;HPM_P1;HPM_P2
2021/11/27 00:00:52;;;;;;;;;;;;;;;20.71;48.73;97981.47;2080332;28;19924;-67
2021/11/27 00:01:52;;;;;;;;;;;;;;;20.72;48.78;97974.09;2085275;28;19923;-67
2021/11/27 00:02:54;;;;;;;;;;;;;;;20.74;48.62;97978.28;2085104;28;19912;-67
2021/11/27 00:03:55;;;;;;;;;;;;;;;20.75;48.76;97981.91;2085186;28;19924;-67
2021/11/27 00:04:55;;;;;;;;;;;;;;;20.76;48.77;97975.34;2085234;28;19913;-67
2021/11/27 00:05:56;;;;;;;;;;;;;;;20.79;48.58;97972.19;2091825;28;19938;-67
2021/11/27 00:06:56;;;;;;;;;;;;;;;20.81;48.60;97986.50;2090748;28;20415;-67
2021/11/27 00:07:57;;;;;;;;;;;;;;;20.83;48.43;97969.88;2083741;28;19916;-67
2021/11/27 00:08:58;;;;;;;;;;;;;;;20.83;48.55;97973.47;2085329;28;19916;-67
2021/11/27 00:09:58;;;;;;;;;;;;;;;20.85;48.24;97968.63;2085116;28;19921;-67
2021/11/27 00:10:59;;;;;;;;;;;;;;;20.86;48.38;97966.72;2085700;28;19962;-67
2021/11/27 00:11:59;;;;;;;;;;;;;;;20.87;48.36;97963.78;2075780;28;19988;-67
2021/11/27 00:13:00;;;;;;;;;;;;;;;20.88;48.37;97951.75;2077863;28;20029;-67
2021/11/27 00:14:01;;;;;;;;;;;;;;;20.89;48.44;97950.69;2087986;28;20418;-67
2021/11/27 00:15:02;;;;;;;;;;;;;;;20.91;48.10;97954.06;2084265;28;19939;-67
2021/11/27 00:16:02;;;;;;;;;;;;;;;20.91;48.23;97951.31;2074584;28;20386;-67
2021/11/27 00:17:02;;;;;;;;;;;;;;;20.93;48.19;97962.06;2076381;28;19963;-67
2021/11/27 00:18:03;;;;;;;;;;;;;;;20.95;48.15;97960.81;2084240;28;19927;-67
2021/11/27 00:19:04;;;;;;;;;;;;;;;20.95;48.07;97955.31;2086715;28;19909;-67
2021/11/27 00:20:07;;;;;;;;;;;;;;;20.97;48.37;97955.13;2075862;28;19913;-67
2021/11/27 00:21:09;;;;;;;;;;;;;;;20.98;48.12;97952.16;2070730;28;20436;-67
2021/11/27 00:22:09;;;;;;;;;;;;;;;20.99;48.20;97955.72;2085207;28;19916;-67
2021/11/27 00:23:10;;;;;;;;;;;;;;;20.99;47.97;97950.25;2084170;28;19912;-67
2021/11/27 00:24:10;;;;;;;;;;;;;;;21.01;48.09;97947.31;2084111;28;19917;-67
2021/11/27 00:25:12;;;;;;;;;;;;;;;21.00;48.08;97938.25;2085774;28;19916;-67
2021/11/27 00:26:13;;;;;;;;;;;;;;;21.01;48.02;97942.66;2083790;28;19916;-67
2021/11/27 00:27:38;;;;;;;;;;;;;;;21.01;47.94;97933.59;2085960;28;20350;-68
2021/11/27 00:28:38;;;;;;;;;;;;;;;21.01;47.87;97936.34;2081468;28;20348;-67
2021/11/27 00:29:39;;;;;;;;;;;;;;;21.01;47.86;97933.59;2083494;28;20892;-68
2021/11/27 00:30:40;;;;;;;;;;;;;;;21.01;47.81;97937.19;2085351;28;19916;-67
2021/11/27 00:31:42;;;;;;;;;;;;;;;21.02;47.78;97927.06;2083548;28;19931;-68
2021/11/27 00:32:42;;;;;;;;;;;;;;;20.99;47.79;97922.84;2084532;28;20402;-67
2021/11/27 00:33:44;;;;;;;;;;;;;;;21.02;47.98;97927.06;2084865;28;20551;-68
2021/11/27 00:34:45;;;;;;;;;;;;;;;21.03;47.92;97923.28;2084333;28;19920;-68
2021/11/27 00:35:45;;;;;;;;;;;;;;;21.01;48.07;97923.50;2083676;28;20375;-67
2021/11/27 00:36:45;;;;;;;;;;;;;;;21.02;48.09;97913.38;2085097;28;19960;-68
2021/11/27 00:37:50;;;;;;;;;;;;;;;21.01;47.99;97912.53;2080557;28;19932;-68
2021/11/27 00:38:51;;;;;;;;;;;;;;;21.03;48.17;97923.28;2084634;28;20330;-68
2021/11/27 00:39:52;;;;;;;;;;;;;;;21.01;47.85;97909.78;2084180;28;20321;-68
2021/11/27 00:40:52;;;;;;;;;;;;;;;21.01;47.92;97908.97;2084158;28;19944;-68
2021/11/27 00:41:52;;;;;;;;;;;;;;;21.00;48.06;97902.66;2076648;28;19908;-67
2021/11/27 00:42:54;;;;;;;;;;;;;;;21.00;48.00;97907.28;2075490;28;19943;-68
2021/11/27 00:43:54;;;;;;;;;;;;;;;21.01;48.08;97903.47;2073610;28;19964;-68
2021/11/27 00:44:55;;;;;;;;;;;;;;;21.00;48.01;97912.75;2086235;28;19959;-68
2021/11/27 00:45:55;;;;;;;;;;;;;;;21.01;48.13;97900.75;2084299;28;19931;-68
2021/11/27 00:46:55;;;;;;;;;;;;;;;21.01;47.98;97903.47;2083445;28;19904;-67
2021/11/27 00:47:56;;;;;;;;;;;;;;;21.01;47.88;97908.97;2085506;28;19920;-68
2021/11/27 00:48:57;;;;;;;;;;;;;;;21.00;48.17;97901.81;2082404;28;19904;-67
2021/11/27 00:49:57;;;;;;;;;;;;;;;20.98;47.79;97900.09;2083675;28;19973;-68
2021/11/27 00:51:06;;;;;;;;;;;;;;;20.98;47.91;97902.84;2081954;28;19916;-67
2021/11/27 00:52:07;;;;;;;;;;;;;;;21.00;48.11;97904.56;2073100;28;20307;-68
2021/11/27 00:53:07;;;;;;;;;;;;;;;20.98;48.06;97902.84;2081282;28;19921;-67
2021/11/27 00:54:07;;;;;;;;;;;;;;;20.98;47.99;97900.09;2087558;28;20393;-67
2021/11/27 00:55:08;;;;;;;;;;;;;;;20.98;47.93;97900.09;2083257;28;19912;-68
2021/11/27 00:56:09;;;;;;;;;;;;;;;20.97;47.94;97898.44;2081215;28;20768;-67
2021/11/27 00:57:09;;;;;;;;;;;;;;;20.98;48.06;97900.09;2082460;28;20341;-68
2021/11/27 00:58:10;;;;;;;;;;;;;;;20.98;48.04;97899.28;2088747;28;20433;-68
2021/11/27 00:59:10;;;;;;;;;;;;;;;20.97;48.05;97892.97;2081966;28;20775;-68
2021/11/27 01:00:13;;;;;;;;;;;;;;;20.98;47.94;97894.63;2083611;28;19912;-67
2021/11/27 01:01:15;;;;;;;;;;;;;;;20.98;47.88;97897.38;2084327;28;19920;-67
2021/11/27 01:02:15;;;;;;;;;;;;;;;20.97;48.03;97884.75;2085784;28;19920;-68
2021/11/27 01:03:17;;;;;;;;;;;;;;;20.97;48.17;97892.13;2083478;28;19917;-68
2021/11/27 01:04:18;;;;;;;;;;;;;;;20.97;48.02;97887.47;2081043;28;19970;-68
2021/11/27 01:05:18;;;;;;;;;;;;;;;20.98;47.98;97883.69;2082250;28;19984;-68
2021/11/27 01:06:21;;;;;;;;;;;;;;;20.97;48.19;97881.19;2072024;28;19956;-67
2021/11/27 01:07:21;;;;;;;;;;;;;;;20.95;48.04;97864.94;2074115;28;19913;-68
2021/11/27 01:08:22;;;;;;;;;;;;;;;20.95;48.03;97867.69;2084188;28;20298;-67
2021/11/27 01:09:22;;;;;;;;;;;;;;;20.95;47.92;97859.47;2078087;28;20434;-67
2021/11/27 01:10:24;;;;;;;;;;;;;;;20.94;48.24;97860.50;2081335;28;20006;-68
2021/11/27 01:11:29;;;;;;;;;;;;;;;20.93;48.07;97847.88;2082284;28;20026;-68
2021/11/27 01:12:30;;;;;;;;;;;;;;;20.94;47.91;97855.03;2083798;28;19985;-67
2021/11/27 01:13:31;;;;;;;;;;;;;;;20.95;48.22;97853.16;2082324;28;19966;-67
2021/11/27 01:14:34;;;;;;;;;;;;;;;20.94;48.18;97844.06;2084228;28;20302;-67
2021/11/27 01:15:35;;;;;;;;;;;;;;;20.93;47.90;97836.94;2073636;28;19981;-68
2021/11/27 01:16:37;;;;;;;;;;;;;;;20.92;47.96;97839.88;2073796;28;19917;-68
2021/11/27 01:17:37;;;;;;;;;;;;;;;20.93;48.22;97845.16;2083172;28;19928;-67
2021/11/27 01:18:38;;;;;;;;;;;;;;;20.92;48.07;97838.00;2084180;28;19920;-67
2021/11/27 01:19:39;;;;;;;;;;;;;;;20.93;48.10;97836.09;2082508;28;19912;-68
2021/11/27 01:20:45;;;;;;;;;;;;;;;20.93;48.16;97836.94;2074536;28;20050;-68
2021/11/27 01:21:48;;;;;;;;;;;;;;;20.93;47.98;97836.94;2084284;28;20015;-67
2021/11/27 01:22:48;;;;;;;;;;;;;;;20.94;48.21;97835.03;2090425;28;20011;-68
2021/11/27 01:23:50;;;;;;;;;;;;;;;20.91;48.21;97822.59;2079620;28;19923;-68
2021/11/27 01:24:51;;;;;;;;;;;;;;;20.92;48.16;97823.44;2074036;28;20252;-68
2021/11/27 01:25:51;;;;;;;;;;;;;;;20.91;48.27;97819.88;2074731;28;20169;-67
2021/11/27 01:26:54;;;;;;;;;;;;;;;20.91;48.35;97822.59;2080687;28;19962;-68
2021/11/27 01:27:54;;;;;;;;;;;;;;;20.91;48.09;97817.13;2083705;28;19939;-67
2021/11/27 01:28:54;;;;;;;;;;;;;;;20.89;48.06;97813.75;2083559;28;20446;-67
2021/11/27 01:29:55;;;;;;;;;;;;;;;20.89;48.11;97808.28;2084174;28;19940;-67
2021/11/27 01:30:57;;;;;;;;;;;;;;;20.88;48.05;97806.63;2084166;28;20142;-67
2021/11/27 01:31:58;;;;;;;;;;;;;;;20.89;48.24;97805.53;2083973;28;19951;-68
2021/11/27 01:32:58;;;;;;;;;;;;;;;20.89;48.10;97811.03;2083349;28;19909;-67
2021/11/27 01:33:58;;;;;;;;;;;;;;;20.89;48.30;97805.53;2084544;28;19917;-68
2021/11/27 01:34:59;;;;;;;;;;;;;;;20.89;48.33;97801.97;2084572;28;19974;-68
2021/11/27 01:36:00;;;;;;;;;;;;;;;20.88;48.19;97801.13;2083296;28;19923;-68
2021/11/27 01:37:01;;;;;;;;;;;;;;;20.87;48.27;97793.13;2083408;28;19951;-67
2021/11/27 01:38:01;;;;;;;;;;;;;;;20.86;48.24;97789.56;2083526;28;19916;-68
2021/11/27 01:39:02;;;;;;;;;;;;;;;20.86;48.36;97786.81;2084274;28;19913;-68
2021/11/27 01:40:04;;;;;;;;;;;;;;;20.88;48.46;97789.34;2074990;28;20371;-68
2021/11/27 01:41:04;;;;;;;;;;;;;;;20.85;48.48;97785.16;2071234;28;19909;-68
2021/11/27 01:42:08;;;;;;;;;;;;;;;20.86;48.39;97784.09;2075447;28;19986;-68
2021/11/27 01:43:09;;;;;;;;;;;;;;;20.86;48.45;97778.59;2075792;28;20042;-67
2021/11/27 01:44:10;;;;;;;;;;;;;;;20.85;48.20;97779.69;2085101;28;19924;-67
2021/11/27 01:45:12;;;;;;;;;;;;;;;20.86;48.43;97786.81;2082141;28;20003;-68
2021/11/27 01:46:13;;;;;;;;;;;;;;;20.85;48.46;97782.41;2084442;28;19916;-67
2021/11/27 01:47:13;;;;;;;;;;;;;;;20.85;48.22;97779.69;2084278;28;19916;-67
2021/11/27 01:48:15;;;;;;;;;;;;;;;20.85;48.24;97787.88;2084146;28;19952;-67
2021/11/27 01:49:15;;;;;;;;;;;;;;;20.84;48.47;97783.44;2075152;28;20027;-67
2021/11/27 01:50:17;;;;;;;;;;;;;;;20.85;48.36;97778.81;2074044;28;19963;-67
2021/11/27 01:51:18;;;;;;;;;;;;;;;20.84;48.32;97783.44;2073660;28;20375;-67
2021/11/27 01:52:20;;;;;;;;;;;;;;;20.84;48.29;97783.44;2072529;28;19916;-67
2021/11/27 01:53:22;;;;;;;;;;;;;;;20.83;48.45;97780.94;2074134;28;19924;-67
2021/11/27 01:54:23;;;;;;;;;;;;;;;20.84;48.27;97777.97;2075773;28;19916;-67
2021/11/27 01:55:24;;;;;;;;;;;;;;;20.84;48.39;97771.66;2074354;28;19919;-67
2021/11/27 01:56:26;;;;;;;;;;;;;;;20.84;48.22;97772.50;2076181;28;19913;-67
2021/11/27 01:57:26;;;;;;;;;;;;;;;20.84;48.30;97769.75;2071438;28;19906;-67
2021/11/27 01:58:27;;;;;;;;;;;;;;;20.84;48.32;97768.94;2075002;28;19924;-67
2021/11/27 01:59:29;;;;;;;;;;;;;;;20.83;48.16;97770.84;2076055;28;20339;-67
2021/11/27 02:00:33;;;;;;;;;;;;;;;20.82;48.21;97758.19;2077815;28;19916;-67
2021/11/27 02:01:34;;;;;;;;;;;;;;;20.83;48.33;97761.78;2074991;28;19917;-67
2021/11/27 02:02:35;;;;;;;;;;;;;;;20.82;48.35;97763.66;2075184;28;19974;-67
2021/11/27 02:03:35;;;;;;;;;;;;;;;20.83;48.46;97759.06;2076618;28;20651;-67
2021/11/27 02:04:35;;;;;;;;;;;;;;;20.82;48.45;97751.88;2074978;28;19936;-67
2021/11/27 02:05:36;;;;;;;;;;;;;;;20.83;48.51;97761.78;2084338;28;19916;-67
2021/11/27 02:06:37;;;;;;;;;;;;;;;20.80;48.47;97752.09;2075826;28;19921;-67
2021/11/27 02:07:40;;;;;;;;;;;;;;;20.82;48.46;97760.09;2078320;28;19920;-67
2021/11/27 02:08:40;;;;;;;;;;;;;;;20.81;48.34;97751.03;2073563;28;20287;-67
2021/11/27 02:09:41;;;;;;;;;;;;;;;20.80;48.47;97760.31;2077193;28;19916;-67
2021/11/27 02:10:42;;;;;;;;;;;;;;;20.80;48.42;97754.84;2076063;28;19916;-67
2021/11/27 02:11:42;;;;;;;;;;;;;;;20.80;48.67;97749.38;2076141;28;20394;-67
2021/11/27 02:12:43;;;;;;;;;;;;;;;20.81;48.55;97747.47;2074833;28;19948;-67
2021/11/27 02:13:43;;;;;;;;;;;;;;;20.79;48.56;97753.16;2076162;28;19924;-67
2021/11/27 02:14:44;;;;;;;;;;;;;;;20.78;48.35;97754.22;2076202;28;19917;-67
2021/11/27 02:15:44;;;;;;;;;;;;;;;20.79;48.61;97758.63;2077289;28;19920;-67
2021/11/27 02:16:48;;;;;;;;;;;;;;;20.78;48.51;97759.69;2073186;28;19921;-67
2021/11/27 02:17:48;;;;;;;;;;;;;;;20.78;48.49;97762.44;2074850;28;20693;-67
2021/11/27 02:18:49;;;;;;;;;;;;;;;20.78;48.46;97754.22;2074929;28;20383;-68
2021/11/27 02:19:50;;;;;;;;;;;;;;;20.77;48.61;97753.38;2075517;28;19908;-67
2021/11/27 02:21:04;;;;;;;;;;;;;;;20.77;48.69;97756.13;2074377;28;19920;-68
2021/11/27 02:22:04;;;;;;;;;;;;;;;20.76;48.67;97759.06;2076685;28;20351;-67
2021/11/27 02:23:06;;;;;;;;;;;;;;;20.76;48.71;97753.59;2074628;28;19947;-67
2021/11/27 02:24:06;;;;;;;;;;;;;;;20.76;48.67;97759.91;2075659;28;20007;-67
2021/11/27 02:25:09;;;;;;;;;;;;;;;20.75;48.86;97762.88;2075163;28;19917;-67
2021/11/27 02:26:11;;;;;;;;;;;;;;;20.76;48.56;97756.34;2075795;28;20575;-67
2021/11/27 02:27:11;;;;;;;;;;;;;;;20.76;48.66;97759.91;2076015;28;19956;-66
2021/11/27 02:28:11;;;;;;;;;;;;;;;20.76;48.70;97748.13;2073821;28;20407;-67
2021/11/27 02:29:17;;;;;;;;;;;;;;;20.76;48.66;97753.59;2076014;28;19917;-67
2021/11/27 02:30:20;;;;;;;;;;;;;;;20.75;48.72;97746.44;2073543;28;19916;-67
2021/11/27 02:31:22;;;;;;;;;;;;;;;20.74;48.38;97745.59;2075848;28;19955;-67
2021/11/27 02:32:22;;;;;;;;;;;;;;;20.75;48.72;97740.97;2073613;28;19919;-67
2021/11/27 02:33:22;;;;;;;;;;;;;;;20.75;48.49;97740.97;2072757;28;20374;-67
2021/11/27 02:34:23;;;;;;;;;;;;;;;20.75;48.77;97733.59;2073576;28;19940;-67
2021/11/27 02:35:23;;;;;;;;;;;;;;;20.75;48.70;97739.06;2076021;28;19916;-67
2021/11/27 02:36:24;;;;;;;;;;;;;;;20.75;48.63;97738.25;2074324;28;20366;-67
2021/11/27 02:37:25;;;;;;;;;;;;;;;20.75;48.63;97732.75;2076576;28;20379;-67
2021/11/27 02:38:25;;;;;;;;;;;;;;;20.74;48.55;97725.59;2074896;28;20467;-67
2021/11/27 02:39:26;;;;;;;;;;;;;;;20.74;48.56;97733.81;2074924;28;20026;-67
2021/11/27 02:40:28;;;;;;;;;;;;;;;20.75;48.65;97735.50;2075854;28;19923;-67
2021/11/27 02:41:28;;;;;;;;;;;;;;;20.74;48.73;97731.06;2075488;28;20337;-67
2021/11/27 02:42:29;;;;;;;;;;;;;;;20.75;48.73;97730.03;2073836;28;19916;-67
2021/11/27 02:43:29;;;;;;;;;;;;;;;20.73;48.64;97730.22;2073791;28;19917;-67
2021/11/27 02:44:31;;;;;;;;;;;;;;;20.73;48.63;97727.50;2075405;28;20294;-67
2021/11/27 02:45:31;;;;;;;;;;;;;;;20.73;48.68;97715.72;2074190;28;20068;-67
2021/11/27 02:46:31;;;;;;;;;;;;;;;20.72;48.79;97723.06;2076546;28;19931;-68
2021/11/27 02:47:32;;;;;;;;;;;;;;;20.72;48.77;97708.53;2073707;28;19912;-67
2021/11/27 02:48:32;;;;;;;;;;;;;;;20.72;48.83;97705.78;2075714;28;20520;-68
2021/11/27 02:49:33;;;;;;;;;;;;;;;20.72;48.67;97686.63;2075005;28;19928;-67
2021/11/27 02:50:33;;;;;;;;;;;;;;;20.70;48.84;97686.00;2075094;28;20375;-68
2021/11/27 02:51:34;;;;;;;;;;;;;;;20.71;48.71;97691.28;2080028;28;20573;-67
2021/11/27 02:52:34;;;;;;;;;;;;;;;20.69;48.82;97693.38;2083288;28;19916;-67
2021/11/27 02:53:35;;;;;;;;;;;;;;;20.71;48.73;97679.50;2084014;28;20574;-67
2021/11/27 02:54:35;;;;;;;;;;;;;;;20.70;48.79;97680.53;2082821;28;19921;-68
2021/11/27 02:55:36;;;;;;;;;;;;;;;20.70;48.80;97683.28;2083795;28;20186;-67
2021/11/27 02:56:36;;;;;;;;;;;;;;;20.68;48.79;97674.47;2083996;28;19953;-68
2021/11/27 02:57:37;;;;;;;;;;;;;;;20.68;48.67;97675.28;2083699;28;20349;-68
2021/11/27 02:58:37;;;;;;;;;;;;;;;20.68;48.67;97678.03;2083049;28;19916;-67
2021/11/27 02:59:38;;;;;;;;;;;;;;;20.68;48.79;97683.50;2078505;28;19961;-68
2021/11/27 03:00:38;;;;;;;;;;;;;;;20.67;48.78;97673.59;2083886;28;19921;-67
2021/11/27 03:01:39;;;;;;;;;;;;;;;20.67;48.97;97678.25;2083685;28;19916;-67
2021/11/27 03:02:39;;;;;;;;;;;;;;;20.67;48.81;97675.50;2083050;28;22237;-67
2021/11/27 03:03:40;;;;;;;;;;;;;;;20.67;48.79;97678.25;2085863;28;19981;-68
2021/11/27 03:04:40;;;;;;;;;;;;;;;20.66;48.87;97676.56;2084007;28;19931;-68
2021/11/27 03:05:40;;;;;;;;;;;;;;;20.65;48.91;97680.34;2093194;28;19912;-68
2021/11/27 03:06:42;;;;;;;;;;;;;;;20.66;48.75;97682.06;2086086;28;19934;-67
2021/11/27 03:07:42;;;;;;;;;;;;;;;20.65;49.03;97674.88;2080934;28;19993;-67
2021/11/27 03:08:43;;;;;;;;;;;;;;;20.65;48.78;97680.34;2083626;28;19913;-66
2021/11/27 03:09:43;;;;;;;;;;;;;;;20.63;49.05;97671.50;2086276;28;19924;-67
2021/11/27 03:10:44;;;;;;;;;;;;;;;20.64;49.10;97673.22;2084755;28;19969;-68
2021/11/27 03:11:46;;;;;;;;;;;;;;;20.62;49.21;97681.63;2084479;28;20492;-67
2021/11/27 03:12:47;;;;;;;;;;;;;;;20.62;49.14;97669.84;2084427;28;19916;-67
2021/11/27 03:13:47;;;;;;;;;;;;;;;20.61;49.14;97679.97;2084981;28;20391;-67
2021/11/27 03:14:48;;;;;;;;;;;;;;;20.61;48.86;97670.91;2084547;28;19908;-68
2021/11/27 03:15:48;;;;;;;;;;;;;;;20.61;49.06;97681.88;2084019;28;20173;-67
2021/11/27 03:16:49;;;;;;;;;;;;;;;20.62;49.26;97675.31;2085018;28;20023;-67
2021/11/27 03:17:49;;;;;;;;;;;;;;;20.60;49.24;97669.22;2086126;28;20444;-67
2021/11/27 03:18:50;;;;;;;;;;;;;;;20.60;49.19;97677.44;2085173;28;20018;-67
2021/11/27 03:19:50;;;;;;;;;;;;;;;20.59;49.28;97673.03;2085381;28;19923;-67
2021/11/27 03:20:51;;;;;;;;;;;;;;;20.58;49.13;97679.53;2085630;28;19916;-67
2021/11/27 03:21:51;;;;;;;;;;;;;;;20.58;49.13;97674.94;2084936;28;20429;-68
2021/11/27 03:22:52;;;;;;;;;;;;;;;20.58;49.00;97674.06;2077067;28;19966;-68
2021/11/27 03:23:52;;;;;;;;;;;;;;;20.57;49.09;97684.19;2075628;28;20603;-67
2021/11/27 03:24:52;;;;;;;;;;;;;;;20.57;49.26;97683.34;2084731;28;19920;-68
2021/11/27 03:25:53;;;;;;;;;;;;;;;20.57;49.32;97688.81;2085192;28;20430;-68
2021/11/27 03:26:53;;;;;;;;;;;;;;;20.54;49.03;97696.38;2085205;28;19955;-67
2021/11/27 03:27:53;;;;;;;;;;;;;;;20.55;49.08;97698.09;2085093;28;19920;-67
2021/11/27 03:28:54;;;;;;;;;;;;;;;20.54;49.24;97699.09;2085564;28;19917;-68
2021/11/27 03:29:54;;;;;;;;;;;;;;;20.55;49.23;97708.19;2083155;28;20377;-68
2021/11/27 03:30:54;;;;;;;;;;;;;;;20.52;49.33;97714.91;2085606;28;20461;-68
2021/11/27 03:31:56;;;;;;;;;;;;;;;20.52;49.34;97714.91;2083972;28;19951;-68
2021/11/27 03:32:56;;;;;;;;;;;;;;;20.52;49.44;97720.38;2084448;28;19913;-68
2021/11/27 03:33:57;;;;;;;;;;;;;;;20.52;49.28;97720.38;2086606;28;19917;-67
2021/11/27 03:34:57;;;;;;;;;;;;;;;20.51;49.29;97740.59;2082285;28;19925;-67
2021/11/27 03:35:57;;;;;;;;;;;;;;;20.52;49.16;97745.00;2085081;28;19921;-68
2021/11/27 03:36:58;;;;;;;;;;;;;;;20.51;49.26;97740.59;2083519;28;20268;-68
2021/11/27 03:37:58;;;;;;;;;;;;;;;20.49;49.47;97739.97;2081957;28;19932;-67
2021/11/27 03:38:58;;;;;;;;;;;;;;;20.49;49.28;97737.25;2082907;28;19913;-68
2021/11/27 03:39:59;;;;;;;;;;;;;;;20.48;49.12;97729.22;2084729;28;20019;-68
2021/11/27 03:40:59;;;;;;;;;;;;;;;20.48;49.21;97737.44;2079378;28;19939;-67
2021/11/27 03:42:00;;;;;;;;;;;;;;;20.47;49.28;97739.34;2085387;28;19967;-67
2021/11/27 03:43:00;;;;;;;;;;;;;;;20.47;49.30;97738.50;2085454;28;19948;-67
2021/11/27 03:44:01;;;;;;;;;;;;;;;20.46;49.16;97737.69;2075433;28;20407;-67
2021/11/27 03:45:03;;;;;;;;;;;;;;;20.45;49.28;97744.19;2077100;28;19917;-67
2021/11/27 03:46:04;;;;;;;;;;;;;;;20.45;49.14;97735.97;2084918;28;19916;-68
2021/11/27 03:47:04;;;;;;;;;;;;;;;20.44;49.13;97738.94;2083433;28;20462;-68
2021/11/27 03:48:07;;;;;;;;;;;;;;;20.44;49.10;97734.31;2084993;28;19917;-68
2021/11/27 03:49:07;;;;;;;;;;;;;;;20.44;49.20;97728.84;2084691;28;19982;-68
2021/11/27 03:50:07;;;;;;;;;;;;;;;20.43;49.31;97732.63;2079932;28;19977;-68
2021/11/27 03:51:10;;;;;;;;;;;;;;;20.43;49.20;97721.69;2084677;28;20813;-68
2021/11/27 03:52:10;;;;;;;;;;;;;;;20.42;49.29;97717.25;2084508;28;19942;-68
2021/11/27 03:53:15;;;;;;;;;;;;;;;20.42;49.24;97725.47;2082816;28;19913;-69
2021/11/27 03:54:15;;;;;;;;;;;;;;;20.42;49.16;97716.44;2082382;28;19908;-68
2021/11/27 03:55:15;;;;;;;;;;;;;;;20.40;49.15;97722.09;2083289;28;20006;-68
2021/11/27 03:56:17;;;;;;;;;;;;;;;20.40;49.21;97716.63;2092073;28;19923;-68
2021/11/27 03:57:18;;;;;;;;;;;;;;;20.40;49.49;97722.09;2092233;28;19908;-68
2021/11/27 03:58:18;;;;;;;;;;;;;;;20.39;49.29;97725.91;2084734;28;19920;-68
2021/11/27 03:59:19;;;;;;;;;;;;;;;20.40;49.27;97715.78;2085101;28;20007;-68
2021/11/27 04:00:20;;;;;;;;;;;;;;;20.38;49.28;97721.47;2084575;28;20622;-68
2021/11/27 04:01:21;;;;;;;;;;;;;;;20.38;49.31;97718.75;2083637;28;20188;-68
2021/11/27 04:02:22;;;;;;;;;;;;;;;20.37;49.41;97717.06;2085570;28;19916;-68
2021/11/27 04:03:23;;;;;;;;;;;;;;;20.37;49.39;97728.00;2083870;28;20024;-68
2021/11/27 04:04:23;;;;;;;;;;;;;;;20.35;49.50;97713.72;2084784;28;20318;-68
2021/11/27 04:05:24;;;;;;;;;;;;;;;20.36;49.36;97720.88;2084173;28;20015;-68
2021/11/27 04:06:25;;;;;;;;;;;;;;;20.34;49.43;97723.81;2083912;28;20420;-68
2021/11/27 04:07:25;;;;;;;;;;;;;;;20.34;49.57;97717.50;2084149;28;19923;-68
2021/11/27 04:08:26;;;;;;;;;;;;;;;20.34;49.34;97712.88;2082065;28;19921;-68
2021/11/27 04:09:26;;;;;;;;;;;;;;;20.34;49.43;97712.03;2085161;28;19961;-68
2021/11/27 04:10:27;;;;;;;;;;;;;;;20.34;49.64;97712.03;2083658;28;20370;-68
2021/11/27 04:11:27;;;;;;;;;;;;;;;20.32;49.42;97705.94;2083072;28;19951;-68
2021/11/27 04:12:28;;;;;;;;;;;;;;;20.32;49.46;97708.66;2085040;28;19916;-68
2021/11/27 04:13:28;;;;;;;;;;;;;;;20.32;49.46;97698.56;2077556;28;19990;-68
2021/11/27 04:14:28;;;;;;;;;;;;;;;20.32;49.42;97703.19;2076260;28;19917;-68
2021/11/27 04:15:29;;;;;;;;;;;;;;;20.30;49.63;97697.09;2083004;28;19963;-68
2021/11/27 04:16:29;;;;;;;;;;;;;;;20.30;49.66;97706.13;2075148;28;19947;-68
2021/11/27 04:17:30;;;;;;;;;;;;;;;20.30;49.50;97708.03;2076639;28;19963;-68
2021/11/27 04:18:30;;;;;;;;;;;;;;;20.29;49.55;97704.47;2082384;28;19924;-68
2021/11/27 04:19:30;;;;;;;;;;;;;;;20.28;49.69;97713.72;2084382;28;19920;-68
2021/11/27 04:20:31;;;;;;;;;;;;;;;20.29;49.71;97706.38;2083398;28;20005;-68
2021/11/27 04:21:31;;;;;;;;;;;;;;;20.29;49.66;97700.91;2084490;28;19920;-68
2021/11/27 04:22:31;;;;;;;;;;;;;;;20.28;49.76;97697.31;2075918;28;20287;-69
2021/11/27 04:23:32;;;;;;;;;;;;;;;20.28;49.63;97693.72;2074144;28;19909;-68
2021/11/27 04:24:32;;;;;;;;;;;;;;;20.27;49.67;97694.81;2085010;28;19912;-68
2021/11/27 04:25:32;;;;;;;;;;;;;;;20.26;49.77;97691.22;2084035;28;19912;-68
2021/11/27 04:26:33;;;;;;;;;;;;;;;20.24;49.83;97696.06;2084771;28;20696;-68
2021/11/27 04:27:33;;;;;;;;;;;;;;;20.25;49.83;97696.91;2084094;28;19921;-68
2021/11/27 04:28:33;;;;;;;;;;;;;;;20.24;49.74;97700.72;2084167;28;19917;-68
2021/11/27 04:29:34;;;;;;;;;;;;;;;20.24;49.76;97700.72;2083839;28;20314;-68
2021/11/27 04:30:34;;;;;;;;;;;;;;;20.23;49.74;97699.84;2085091;28;20231;-68
2021/11/27 04:31:34;;;;;;;;;;;;;;;20.23;49.84;97699.84;2084225;28;19966;-68
2021/11/27 04:32:35;;;;;;;;;;;;;;;20.22;49.75;97692.72;2084475;28;20334;-68
2021/11/27 04:33:36;;;;;;;;;;;;;;;20.22;49.85;97694.63;2083700;28;19952;-68
2021/11/27 04:34:36;;;;;;;;;;;;;;;20.21;49.99;97685.56;2075626;28;20025;-68
2021/11/27 04:35:37;;;;;;;;;;;;;;;20.20;49.84;97685.78;2075614;28;19917;-68
2021/11/27 04:36:37;;;;;;;;;;;;;;;20.20;49.83;97683.88;2081248;28;19928;-68
2021/11/27 04:37:37;;;;;;;;;;;;;;;20.20;49.85;97677.56;2075395;28;19923;-68
2021/11/27 04:38:38;;;;;;;;;;;;;;;20.20;49.96;97680.31;2074927;28;19917;-68
2021/11/27 04:39:38;;;;;;;;;;;;;;;20.18;49.98;97671.47;2079220;28;19912;-68
2021/11/27 04:40:39;;;;;;;;;;;;;;;20.19;49.91;97673.16;2080708;28;19917;-68
2021/11/27 04:41:39;;;;;;;;;;;;;;;20.19;50.04;97670.44;2078709;28;19927;-68
2021/11/27 04:42:39;;;;;;;;;;;;;;;20.18;50.14;97668.72;2083891;28;19924;-68
2021/11/27 04:43:40;;;;;;;;;;;;;;;20.18;50.02;97674.19;2083389;28;19912;-68
2021/11/27 04:44:40;;;;;;;;;;;;;;;20.15;50.06;97659.06;2075741;28;20308;-68
2021/11/27 04:45:41;;;;;;;;;;;;;;;20.15;50.08;97664.53;2075286;28;20410;-68
2021/11/27 04:46:41;;;;;;;;;;;;;;;20.14;50.06;97654.66;2083859;28;20461;-68
2021/11/27 04:47:41;;;;;;;;;;;;;;;20.13;49.98;97653.81;2084937;28;19917;-68
2021/11/27 04:48:42;;;;;;;;;;;;;;;20.13;50.03;97651.06;2069111;28;20311;-68
2021/11/27 04:49:42;;;;;;;;;;;;;;;20.13;50.16;97656.53;2076272;28;20828;-68
2021/11/27 04:50:42;;;;;;;;;;;;;;;20.12;50.12;97648.56;2084307;28;19916;-68
2021/11/27 04:51:43;;;;;;;;;;;;;;;20.12;50.05;97654.88;2079694;28;19921;-68
2021/11/27 04:52:44;;;;;;;;;;;;;;;20.10;50.13;97648.78;2067362;28;19924;-68
2021/11/27 04:53:44;;;;;;;;;;;;;;;20.10;50.04;97651.50;2069103;28;19944;-68
2021/11/27 04:54:44;;;;;;;;;;;;;;;20.10;50.21;97656.97;2071508;28;19955;-68
2021/11/27 04:55:45;;;;;;;;;;;;;;;20.09;50.10;97655.31;2076323;28;20027;-68
2021/11/27 04:56:45;;;;;;;;;;;;;;;20.09;50.14;97668.97;2076150;28;20846;-68
2021/11/27 04:57:45;;;;;;;;;;;;;;;20.09;50.27;97670.88;2074519;28;20415;-68
2021/11/27 04:58:46;;;;;;;;;;;;;;;20.08;50.27;97672.75;2075907;28;20075;-68
2021/11/27 04:59:46;;;;;;;;;;;;;;;20.08;50.33;97678.22;2075577;28;20822;-68
2021/11/27 05:00:48;;;;;;;;;;;;;;;20.07;50.35;97684.75;2075308;28;20687;-68
2021/11/27 05:01:49;;;;;;;;;;;;;;;20.06;50.18;97685.81;2075528;28;20212;-68
2021/11/27 05:02:50;;;;;;;;;;;;;;;20.06;50.22;97693.16;2075040;28;19991;-68
2021/11/27 05:03:50;;;;;;;;;;;;;;;20.05;50.21;97692.34;2078596;28;19948;-68
2021/11/27 05:04:51;;;;;;;;;;;;;;;20.03;50.40;97699.91;2078940;28;19942;-70
2021/11/27 05:05:51;;;;;;;;;;;;;;;20.03;50.34;97699.91;2075946;28;20407;-68
2021/11/27 05:06:51;;;;;;;;;;;;;;;20.03;50.24;97699.06;2075595;28;19921;-68
2021/11/27 05:07:52;;;;;;;;;;;;;;;20.03;50.26;97699.91;2075735;28;19952;-68
2021/11/27 05:08:53;;;;;;;;;;;;;;;20.02;50.36;97709.19;2075762;28;19917;-68
2021/11/27 05:09:53;;;;;;;;;;;;;;;20.02;50.45;97703.72;2075424;28;19966;-68
2021/11/27 05:10:54;;;;;;;;;;;;;;;20.02;50.44;97703.72;2075998;28;20271;-68
2021/11/27 05:11:54;;;;;;;;;;;;;;;20.02;50.28;97711.91;2075616;28;19917;-68
2021/11/27 05:12:54;;;;;;;;;;;;;;;20.00;50.42;97699.50;2075578;28;20063;-68
2021/11/27 05:13:55;;;;;;;;;;;;;;;19.99;50.51;97704.13;2075954;28;19916;-68
2021/11/27 05:14:55;;;;;;;;;;;;;;;19.99;50.40;97704.13;2076350;28;19963;-68
2021/11/27 05:15:55;;;;;;;;;;;;;;;19.98;50.37;97707.91;2076425;28;19966;-68
2021/11/27 05:16:56;;;;;;;;;;;;;;;19.98;50.52;97707.91;2075565;28;19916;-68
2021/11/27 05:17:56;;;;;;;;;;;;;;;19.98;50.56;97710.66;2074899;28;19921;-68